KDUJ/DUJ METAR and TAF weather

Enter ICAO airport designator
Station Type Date Time Source
KDUJ METAR 2019/04/19 22:33 UTC NOAA

KDUJ 192233Z AUTO 04003KT 4SM -RA BR SCT008 BKN027 OVC080 15/14 A2954 RMK AO2 PRESFR P0008 T01500139


Station Type Date Time Source
KDUJ Decoded METAR 2019/04/19 22:33 UTC NOAA

DU BOIS-JEFFERSON COUNTY, PA, United States (KDUJ) 41-11N 078-53W
Apr 19, 2019 - 06:33 PM EDT / 2019.04.19 2233 UTC
Wind: from the NE (040 degrees) at 3 MPH (3 KT):0
Visibility: 4 mile(s):0
Sky conditions: overcast
Weather: light rain; mist
Precipitation last hour: 0.08 inches
Temperature: 59.0 F (15.0 C)
Dew Point: 57.0 F (13.9 C)
Relative Humidity: 93%
Pressure (altimeter): 29.54 in. Hg (1000 hPa)
Pressure tendency: falling rapidly
ob: KDUJ 192233Z AUTO 04003KT 4SM -RA BR SCT008 BKN027 OVC080 15/14 A2954 RMK AO2 PRESFR P0008 T01500139
cycle: 22

Station Type Date Time Source
KDUJ TAF 2019/04/19 20:24 UTC NOAA

TAF
AMD KDUJ 192020Z 1920/2018 13006KT P6SM -SHRA BKN050 WS020/22035KT
TEMPO 1920/1924 3SM SHRA BKN025
FM200200 10009KT P6SM VCSH OVC020 WS020/22035KT

Example: see airport list